sensor_id;sensor_type;location;lat;lon;timestamp;P1;durP1;ratioP1;P2;durP2;ratioP2
67514;SDS011;60646;55.802;37.032;2022-10-30T00:00:32;1.92;;;0.80;;
67514;SDS011;60646;55.802;37.032;2022-10-30T00:02:58;2.97;;;1.40;;
67514;SDS011;60646;55.802;37.032;2022-10-30T00:05:24;2.17;;;0.90;;
67514;SDS011;60646;55.802;37.032;2022-10-30T00:07:50;1.23;;;0.95;;
67514;SDS011;60646;55.802;37.032;2022-10-30T00:10:18;1.13;;;0.80;;
67514;SDS011;60646;55.802;37.032;2022-10-30T00:12:44;1.80;;;0.93;;
67514;SDS011;60646;55.802;37.032;2022-10-30T00:15:10;2.03;;;1.20;;
67514;SDS011;60646;55.802;37.032;2022-10-30T00:17:36;1.38;;;1.00;;
67514;SDS011;60646;55.802;37.032;2022-10-30T00:20:02;2.20;;;1.10;;
67514;SDS011;60646;55.802;37.032;2022-10-30T00:22:28;1.98;;;1.08;;
67514;SDS011;60646;55.802;37.032;2022-10-30T00:24:54;2.58;;;1.42;;
67514;SDS011;60646;55.802;37.032;2022-10-30T00:27:20;2.13;;;1.45;;
67514;SDS011;60646;55.802;37.032;2022-10-30T00:29:46;1.85;;;1.23;;
67514;SDS011;60646;55.802;37.032;2022-10-30T00:32:12;1.73;;;1.10;;
67514;SDS011;60646;55.802;37.032;2022-10-30T00:34:37;2.00;;;1.20;;
67514;SDS011;60646;55.802;37.032;2022-10-30T00:37:06;1.48;;;1.08;;
67514;SDS011;60646;55.802;37.032;2022-10-30T00:39:32;2.33;;;1.30;;
67514;SDS011;60646;55.802;37.032;2022-10-30T00:41:57;2.35;;;1.30;;
67514;SDS011;60646;55.802;37.032;2022-10-30T00:44:56;2.25;;;1.02;;
67514;SDS011;60646;55.802;37.032;2022-10-30T00:47:30;2.28;;;1.33;;
67514;SDS011;60646;55.802;37.032;2022-10-30T00:50:15;1.73;;;1.17;;
67514;SDS011;60646;55.802;37.032;2022-10-30T00:52:47;2.05;;;1.17;;
67514;SDS011;60646;55.802;37.032;2022-10-30T00:55:29;1.90;;;1.38;;
67514;SDS011;60646;55.802;37.032;2022-10-30T00:58:02;1.75;;;1.15;;
67514;SDS011;60646;55.802;37.032;2022-10-30T01:00:32;3.30;;;1.40;;
67514;SDS011;60646;55.802;37.032;2022-10-30T01:03:00;1.90;;;1.33;;
67514;SDS011;60646;55.802;37.032;2022-10-30T01:05:27;2.05;;;1.40;;
67514;SDS011;60646;55.802;37.032;2022-10-30T01:07:57;2.75;;;1.88;;
67514;SDS011;60646;55.802;37.032;2022-10-30T01:10:23;4.78;;;1.88;;
67514;SDS011;60646;55.802;37.032;2022-10-30T01:12:49;2.72;;;1.60;;
67514;SDS011;60646;55.802;37.032;2022-10-30T01:15:18;2.47;;;1.40;;
67514;SDS011;60646;55.802;37.032;2022-10-30T01:20:56;4.00;;;1.67;;
67514;SDS011;60646;55.802;37.032;2022-10-30T01:23:35;2.17;;;1.35;;
67514;SDS011;60646;55.802;37.032;2022-10-30T01:26:16;1.95;;;1.50;;
67514;SDS011;60646;55.802;37.032;2022-10-30T01:31:30;2.25;;;1.35;;
67514;SDS011;60646;55.802;37.032;2022-10-30T01:39:22;2.90;;;1.70;;
67514;SDS011;60646;55.802;37.032;2022-10-30T01:41:50;3.53;;;1.75;;
67514;SDS011;60646;55.802;37.032;2022-10-30T01:44:29;2.28;;;1.42;;
67514;SDS011;60646;55.802;37.032;2022-10-30T01:49:32;3.30;;;2.05;;
67514;SDS011;60646;55.802;37.032;2022-10-30T02:00:12;2.63;;;1.60;;
67514;SDS011;60646;55.802;37.032;2022-10-30T02:02:45;2.30;;;1.20;;
67514;SDS011;60646;55.802;37.032;2022-10-30T02:05:16;4.05;;;1.48;;
67514;SDS011;60646;55.802;37.032;2022-10-30T02:07:52;3.25;;;1.70;;
67514;SDS011;60646;55.802;37.032;2022-10-30T02:10:18;2.05;;;1.33;;
67514;SDS011;60646;55.802;37.032;2022-10-30T02:12:44;2.97;;;1.48;;
67514;SDS011;60646;55.802;37.032;2022-10-30T02:15:11;3.58;;;1.38;;
67514;SDS011;60646;55.802;37.032;2022-10-30T02:17:37;2.40;;;1.25;;
67514;SDS011;60646;55.802;37.032;2022-10-30T02:20:05;2.42;;;1.65;;
67514;SDS011;60646;55.802;37.032;2022-10-30T02:22:32;2.75;;;1.30;;
67514;SDS011;60646;55.802;37.032;2022-10-30T02:24:58;1.85;;;1.25;;
67514;SDS011;60646;55.802;37.032;2022-10-30T02:27:23;1.98;;;1.35;;
67514;SDS011;60646;55.802;37.032;2022-10-30T02:29:49;4.10;;;1.63;;
67514;SDS011;60646;55.802;37.032;2022-10-30T02:32:15;2.40;;;1.08;;
67514;SDS011;60646;55.802;37.032;2022-10-30T02:34:42;2.20;;;1.30;;
67514;SDS011;60646;55.802;37.032;2022-10-30T02:37:08;3.15;;;1.20;;
67514;SDS011;60646;55.802;37.032;2022-10-30T02:39:34;1.83;;;1.17;;
67514;SDS011;60646;55.802;37.032;2022-10-30T02:42:02;2.08;;;1.10;;
67514;SDS011;60646;55.802;37.032;2022-10-30T02:44:29;3.97;;;1.58;;
67514;SDS011;60646;55.802;37.032;2022-10-30T02:46:55;2.92;;;1.30;;
67514;SDS011;60646;55.802;37.032;2022-10-30T02:49:21;5.25;;;1.30;;
67514;SDS011;60646;55.802;37.032;2022-10-30T02:51:47;2.45;;;1.33;;
67514;SDS011;60646;55.802;37.032;2022-10-30T02:54:12;3.55;;;1.85;;
67514;SDS011;60646;55.802;37.032;2022-10-30T02:56:41;4.00;;;1.55;;
67514;SDS011;60646;55.802;37.032;2022-10-30T02:59:07;2.75;;;1.10;;
67514;SDS011;60646;55.802;37.032;2022-10-30T03:01:33;2.70;;;1.20;;
67514;SDS011;60646;55.802;37.032;2022-10-30T03:03:59;2.28;;;1.20;;
67514;SDS011;60646;55.802;37.032;2022-10-30T03:06:25;2.33;;;1.20;;
67514;SDS011;60646;55.802;37.032;2022-10-30T03:08:51;2.03;;;1.10;;
67514;SDS011;60646;55.802;37.032;2022-10-30T03:11:18;2.78;;;1.10;;
67514;SDS011;60646;55.802;37.032;2022-10-30T03:13:45;2.17;;;1.15;;
67514;SDS011;60646;55.802;37.032;2022-10-30T03:18:39;2.72;;;1.00;;
67514;SDS011;60646;55.802;37.032;2022-10-30T03:21:09;1.42;;;0.95;;
67514;SDS011;60646;55.802;37.032;2022-10-30T03:23:39;1.35;;;1.00;;
67514;SDS011;60646;55.802;37.032;2022-10-30T03:26:05;2.22;;;1.00;;
67514;SDS011;60646;55.802;37.032;2022-10-30T03:28:49;3.50;;;1.20;;
67514;SDS011;60646;55.802;37.032;2022-10-30T03:31:16;1.52;;;1.00;;
67514;SDS011;60646;55.802;37.032;2022-10-30T03:33:44;1.60;;;1.00;;
67514;SDS011;60646;55.802;37.032;2022-10-30T03:36:11;1.58;;;0.80;;
67514;SDS011;60646;55.802;37.032;2022-10-30T03:38:39;1.63;;;0.90;;
67514;SDS011;60646;55.802;37.032;2022-10-30T03:41:05;1.95;;;0.90;;
67514;SDS011;60646;55.802;37.032;2022-10-30T03:43:31;2.63;;;1.20;;
67514;SDS011;60646;55.802;37.032;2022-10-30T03:45:57;1.35;;;0.70;;
67514;SDS011;60646;55.802;37.032;2022-10-30T03:48:24;2.05;;;0.95;;
67514;SDS011;60646;55.802;37.032;2022-10-30T03:50:53;3.13;;;1.08;;
67514;SDS011;60646;55.802;37.032;2022-10-30T03:53:20;1.55;;;0.90;;
67514;SDS011;60646;55.802;37.032;2022-10-30T03:55:49;1.52;;;0.63;;
67514;SDS011;60646;55.802;37.032;2022-10-30T03:58:16;1.50;;;0.73;;
67514;SDS011;60646;55.802;37.032;2022-10-30T04:00:42;1.15;;;0.73;;
67514;SDS011;60646;55.802;37.032;2022-10-30T04:03:08;1.13;;;0.70;;
67514;SDS011;60646;55.802;37.032;2022-10-30T04:05:37;2.00;;;0.60;;
67514;SDS011;60646;55.802;37.032;2022-10-30T04:08:04;1.58;;;0.70;;
67514;SDS011;60646;55.802;37.032;2022-10-30T04:10:35;4.03;;;0.80;;
67514;SDS011;60646;55.802;37.032;2022-10-30T04:13:06;1.45;;;0.85;;
67514;SDS011;60646;55.802;37.032;2022-10-30T04:15:35;2.20;;;0.70;;
67514;SDS011;60646;55.802;37.032;2022-10-30T04:18:01;1.98;;;0.60;;
67514;SDS011;60646;55.802;37.032;2022-10-30T04:20:28;1.08;;;0.70;;
67514;SDS011;60646;55.802;37.032;2022-10-30T04:22:59;4.13;;;0.80;;
67514;SDS011;60646;55.802;37.032;2022-10-30T04:25:28;0.95;;;0.50;;
67514;SDS011;60646;55.802;37.032;2022-10-30T04:27:56;1.70;;;0.65;;
67514;SDS011;60646;55.802;37.032;2022-10-30T04:30:23;1.77;;;0.60;;
67514;SDS011;60646;55.802;37.032;2022-10-30T04:32:53;0.98;;;0.40;;
67514;SDS011;60646;55.802;37.032;2022-10-30T04:35:22;2.08;;;0.75;;
67514;SDS011;60646;55.802;37.032;2022-10-30T04:37:56;0.90;;;0.52;;
67514;SDS011;60646;55.802;37.032;2022-10-30T04:40:25;0.85;;;0.60;;
67514;SDS011;60646;55.802;37.032;2022-10-30T04:42:57;0.80;;;0.60;;
67514;SDS011;60646;55.802;37.032;2022-10-30T04:45:23;0.52;;;0.50;;
67514;SDS011;60646;55.802;37.032;2022-10-30T04:47:50;0.95;;;0.70;;
67514;SDS011;60646;55.802;37.032;2022-10-30T04:50:16;1.42;;;0.70;;
67514;SDS011;60646;55.802;37.032;2022-10-30T04:52:42;1.05;;;0.50;;
67514;SDS011;60646;55.802;37.032;2022-10-30T04:55:09;0.95;;;0.60;;
67514;SDS011;60646;55.802;37.032;2022-10-30T04:57:36;1.05;;;0.50;;
67514;SDS011;60646;55.802;37.032;2022-10-30T05:00:03;1.00;;;0.60;;
67514;SDS011;60646;55.802;37.032;2022-10-30T05:02:30;3.08;;;0.75;;
67514;SDS011;60646;55.802;37.032;2022-10-30T05:04:57;1.30;;;0.60;;
67514;SDS011;60646;55.802;37.032;2022-10-30T05:07:23;1.25;;;0.60;;
67514;SDS011;60646;55.802;37.032;2022-10-30T05:09:49;1.25;;;0.47;;
67514;SDS011;60646;55.802;37.032;2022-10-30T05:12:15;3.75;;;0.55;;
67514;SDS011;60646;55.802;37.032;2022-10-30T05:14:50;2.50;;;0.95;;
67514;SDS011;60646;55.802;37.032;2022-10-30T05:17:17;1.00;;;0.63;;
67514;SDS011;60646;55.802;37.032;2022-10-30T05:19:43;0.80;;;0.50;;
67514;SDS011;60646;55.802;37.032;2022-10-30T05:22:10;0.63;;;0.50;;
67514;SDS011;60646;55.802;37.032;2022-10-30T05:24:37;1.23;;;0.52;;
67514;SDS011;60646;55.802;37.032;2022-10-30T05:27:04;0.80;;;0.50;;
67514;SDS011;60646;55.802;37.032;2022-10-30T05:29:31;0.88;;;0.50;;
67514;SDS011;60646;55.802;37.032;2022-10-30T05:31:57;0.77;;;0.40;;
67514;SDS011;60646;55.802;37.032;2022-10-30T05:34:36;2.15;;;0.47;;
67514;SDS011;60646;55.802;37.032;2022-10-30T05:37:02;0.60;;;0.50;;
67514;SDS011;60646;55.802;37.032;2022-10-30T05:39:28;1.05;;;0.50;;
67514;SDS011;60646;55.802;37.032;2022-10-30T05:41:54;2.10;;;0.40;;
67514;SDS011;60646;55.802;37.032;2022-10-30T05:44:22;0.75;;;0.45;;
67514;SDS011;60646;55.802;37.032;2022-10-30T05:46:48;2.78;;;0.60;;
67514;SDS011;60646;55.802;37.032;2022-10-30T05:49:22;1.10;;;0.55;;
67514;SDS011;60646;55.802;37.032;2022-10-30T05:51:48;0.77;;;0.30;;
67514;SDS011;60646;55.802;37.032;2022-10-30T05:54:14;1.50;;;0.30;;
67514;SDS011;60646;55.802;37.032;2022-10-30T05:56:55;1.52;;;0.20;;
67514;SDS011;60646;55.802;37.032;2022-10-30T05:59:28;0.20;;;0.20;;
67514;SDS011;60646;55.802;37.032;2022-10-30T06:01:54;1.85;;;0.20;;
67514;SDS011;60646;55.802;37.032;2022-10-30T06:04:22;0.32;;;0.20;;
67514;SDS011;60646;55.802;37.032;2022-10-30T06:06:48;0.50;;;0.22;;
67514;SDS011;60646;55.802;37.032;2022-10-30T06:09:13;3.03;;;0.30;;
67514;SDS011;60646;55.802;37.032;2022-10-30T06:11:57;0.35;;;0.20;;
67514;SDS011;60646;55.802;37.032;2022-10-30T06:14:37;4.13;;;0.30;;
67514;SDS011;60646;55.802;37.032;2022-10-30T06:17:03;1.95;;;0.30;;
67514;SDS011;60646;55.802;37.032;2022-10-30T06:19:31;0.20;;;0.20;;
67514;SDS011;60646;55.802;37.032;2022-10-30T06:22:09;0.35;;;0.20;;
67514;SDS011;60646;55.802;37.032;2022-10-30T06:24:41;3.92;;;0.40;;
67514;SDS011;60646;55.802;37.032;2022-10-30T06:27:15;0.57;;;0.40;;
67514;SDS011;60646;55.802;37.032;2022-10-30T06:29:41;0.77;;;0.20;;
67514;SDS011;60646;55.802;37.032;2022-10-30T06:32:07;1.60;;;0.38;;
67514;SDS011;60646;55.802;37.032;2022-10-30T06:34:33;2.55;;;0.30;;
67514;SDS011;60646;55.802;37.032;2022-10-30T06:36:58;0.52;;;0.52;;
67514;SDS011;60646;55.802;37.032;2022-10-30T06:39:25;0.30;;;0.30;;
67514;SDS011;60646;55.802;37.032;2022-10-30T06:42:11;0.77;;;0.38;;
67514;SDS011;60646;55.802;37.032;2022-10-30T06:44:56;0.95;;;0.40;;
67514;SDS011;60646;55.802;37.032;2022-10-30T06:47:22;2.13;;;0.40;;
67514;SDS011;60646;55.802;37.032;2022-10-30T06:49:48;2.30;;;0.98;;
67514;SDS011;60646;55.802;37.032;2022-10-30T06:52:14;0.70;;;0.45;;
67514;SDS011;60646;55.802;37.032;2022-10-30T06:54:40;0.50;;;0.40;;
67514;SDS011;60646;55.802;37.032;2022-10-30T06:57:35;0.77;;;0.38;;
67514;SDS011;60646;55.802;37.032;2022-10-30T07:00:30;0.63;;;0.40;;
67514;SDS011;60646;55.802;37.032;2022-10-30T07:03:16;0.73;;;0.30;;
67514;SDS011;60646;55.802;37.032;2022-10-30T07:05:42;2.40;;;0.30;;
67514;SDS011;60646;55.802;37.032;2022-10-30T07:08:08;0.22;;;0.22;;
67514;SDS011;60646;55.802;37.032;2022-10-30T07:10:34;0.55;;;0.40;;
67514;SDS011;60646;55.802;37.032;2022-10-30T07:13:19;1.05;;;0.30;;
67514;SDS011;60646;55.802;37.032;2022-10-30T07:18:32;0.30;;;0.30;;
67514;SDS011;60646;55.802;37.032;2022-10-30T07:20:59;0.28;;;0.28;;
67514;SDS011;60646;55.802;37.032;2022-10-30T07:23:26;0.55;;;0.40;;
67514;SDS011;60646;55.802;37.032;2022-10-30T07:25:59;0.30;;;0.30;;
67514;SDS011;60646;55.802;37.032;2022-10-30T07:28:34;0.80;;;0.32;;
67514;SDS011;60646;55.802;37.032;2022-10-30T07:31:50;0.45;;;0.30;;
67514;SDS011;60646;55.802;37.032;2022-10-30T07:35:20;1.08;;;0.40;;
67514;SDS011;60646;55.802;37.032;2022-10-30T07:37:46;0.82;;;0.40;;
67514;SDS011;60646;55.802;37.032;2022-10-30T07:40:14;0.30;;;0.30;;
67514;SDS011;60646;55.802;37.032;2022-10-30T07:42:56;0.30;;;0.30;;
67514;SDS011;60646;55.802;37.032;2022-10-30T07:45:45;0.82;;;0.40;;
67514;SDS011;60646;55.802;37.032;2022-10-30T07:48:23;0.50;;;0.40;;
67514;SDS011;60646;55.802;37.032;2022-10-30T07:50:58;0.63;;;0.32;;
67514;SDS011;60646;55.802;37.032;2022-10-30T07:53:25;0.77;;;0.30;;
67514;SDS011;60646;55.802;37.032;2022-10-30T07:55:51;0.57;;;0.40;;
67514;SDS011;60646;55.802;37.032;2022-10-30T07:58:40;0.35;;;0.30;;
67514;SDS011;60646;55.802;37.032;2022-10-30T08:01:30;0.85;;;0.40;;
67514;SDS011;60646;55.802;37.032;2022-10-30T08:04:04;0.50;;;0.35;;
67514;SDS011;60646;55.802;37.032;2022-10-30T08:06:29;0.28;;;0.20;;
67514;SDS011;60646;55.802;37.032;2022-10-30T08:08:55;0.38;;;0.30;;
67514;SDS011;60646;55.802;37.032;2022-10-30T08:11:24;0.98;;;0.40;;
67514;SDS011;60646;55.802;37.032;2022-10-30T08:13:52;2.08;;;0.68;;
67514;SDS011;60646;55.802;37.032;2022-10-30T08:16:18;1.00;;;0.30;;
67514;SDS011;60646;55.802;37.032;2022-10-30T08:18:47;0.25;;;0.25;;
67514;SDS011;60646;55.802;37.032;2022-10-30T08:21:13;0.30;;;0.30;;
67514;SDS011;60646;55.802;37.032;2022-10-30T08:23:53;4.03;;;0.38;;
67514;SDS011;60646;55.802;37.032;2022-10-30T08:26:21;0.50;;;0.40;;
67514;SDS011;60646;55.802;37.032;2022-10-30T08:29:05;0.45;;;0.45;;
67514;SDS011;60646;55.802;37.032;2022-10-30T08:31:32;0.63;;;0.40;;
67514;SDS011;60646;55.802;37.032;2022-10-30T08:34:01;0.52;;;0.40;;
67514;SDS011;60646;55.802;37.032;2022-10-30T08:36:34;2.70;;;1.05;;
67514;SDS011;60646;55.802;37.032;2022-10-30T08:39:01;0.95;;;0.38;;
67514;SDS011;60646;55.802;37.032;2022-10-30T08:41:50;0.50;;;0.30;;
67514;SDS011;60646;55.802;37.032;2022-10-30T08:44:17;0.40;;;0.20;;
67514;SDS011;60646;55.802;37.032;2022-10-30T08:47:02;2.75;;;0.30;;
67514;SDS011;60646;55.802;37.032;2022-10-30T08:49:28;0.73;;;0.45;;
67514;SDS011;60646;55.802;37.032;2022-10-30T08:51:59;0.50;;;0.38;;
67514;SDS011;60646;55.802;37.032;2022-10-30T08:54:25;1.20;;;0.30;;
67514;SDS011;60646;55.802;37.032;2022-10-30T08:56:53;0.30;;;0.30;;
67514;SDS011;60646;55.802;37.032;2022-10-30T08:59:19;0.50;;;0.30;;
67514;SDS011;60646;55.802;37.032;2022-10-30T09:01:47;0.73;;;0.30;;
67514;SDS011;60646;55.802;37.032;2022-10-30T09:04:18;0.40;;;0.30;;
67514;SDS011;60646;55.802;37.032;2022-10-30T09:07:02;1.77;;;0.40;;
67514;SDS011;60646;55.802;37.032;2022-10-30T09:09:47;1.52;;;0.38;;
67514;SDS011;60646;55.802;37.032;2022-10-30T09:12:13;1.92;;;0.40;;
67514;SDS011;60646;55.802;37.032;2022-10-30T09:14:43;1.05;;;0.98;;
67514;SDS011;60646;55.802;37.032;2022-10-30T09:17:10;0.75;;;0.50;;
67514;SDS011;60646;55.802;37.032;2022-10-30T09:19:38;0.47;;;0.38;;
67514;SDS011;60646;55.802;37.032;2022-10-30T09:22:07;1.30;;;0.50;;
67514;SDS011;60646;55.802;37.032;2022-10-30T09:24:38;3.95;;;0.45;;
67514;SDS011;60646;55.802;37.032;2022-10-30T09:27:23;0.82;;;0.57;;
67514;SDS011;60646;55.802;37.032;2022-10-30T09:29:54;0.55;;;0.40;;
67514;SDS011;60646;55.802;37.032;2022-10-30T09:32:22;0.82;;;0.30;;
67514;SDS011;60646;55.802;37.032;2022-10-30T09:34:58;0.47;;;0.40;;
67514;SDS011;60646;55.802;37.032;2022-10-30T09:37:43;0.65;;;0.30;;
67514;SDS011;60646;55.802;37.032;2022-10-30T09:40:17;0.75;;;0.30;;
67514;SDS011;60646;55.802;37.032;2022-10-30T09:58:28;0.52;;;0.20;;
67514;SDS011;60646;55.802;37.032;2022-10-30T10:06:53;1.42;;;0.60;;
67514;SDS011;60646;55.802;37.032;2022-10-30T10:09:45;0.50;;;0.50;;
67514;SDS011;60646;55.802;37.032;2022-10-30T10:12:38;0.93;;;0.60;;
67514;SDS011;60646;55.802;37.032;2022-10-30T10:15:19;1.05;;;0.40;;
67514;SDS011;60646;55.802;37.032;2022-10-30T10:18:00;0.40;;;0.30;;
67514;SDS011;60646;55.802;37.032;2022-10-30T10:20:38;0.22;;;0.22;;
67514;SDS011;60646;55.802;37.032;2022-10-30T10:23:19;0.75;;;0.32;;
67514;SDS011;60646;55.802;37.032;2022-10-30T10:25:56;1.98;;;0.20;;
67514;SDS011;60646;55.802;37.032;2022-10-30T10:31:42;1.35;;;0.30;;
67514;SDS011;60646;55.802;37.032;2022-10-30T10:37:24;5.85;;;2.17;;
67514;SDS011;60646;55.802;37.032;2022-10-30T10:40:19;6.07;;;1.73;;
67514;SDS011;60646;55.802;37.032;2022-10-30T10:42:55;4.28;;;1.52;;
67514;SDS011;60646;55.802;37.032;2022-10-30T10:48:28;1.60;;;0.70;;
67514;SDS011;60646;55.802;37.032;2022-10-30T10:56:03;0.50;;;0.47;;
67514;SDS011;60646;55.802;37.032;2022-10-30T10:58:45;0.45;;;0.20;;
67514;SDS011;60646;55.802;37.032;2022-10-30T11:01:36;0.68;;;0.40;;
67514;SDS011;60646;55.802;37.032;2022-10-30T11:04:13;0.57;;;0.30;;
67514;SDS011;60646;55.802;37.032;2022-10-30T11:18:07;3.25;;;0.40;;
67514;SDS011;60646;55.802;37.032;2022-10-30T11:23:29;1.48;;;0.50;;
67514;SDS011;60646;55.802;37.032;2022-10-30T11:26:48;1.38;;;0.82;;
67514;SDS011;60646;55.802;37.032;2022-10-30T11:29:14;1.08;;;0.52;;
67514;SDS011;60646;55.802;37.032;2022-10-30T11:31:57;0.63;;;0.40;;
67514;SDS011;60646;55.802;37.032;2022-10-30T11:34:33;0.47;;;0.30;;
67514;SDS011;60646;55.802;37.032;2022-10-30T11:37:01;1.55;;;0.43;;
67514;SDS011;60646;55.802;37.032;2022-10-30T11:44:48;0.40;;;0.22;;
67514;SDS011;60646;55.802;37.032;2022-10-30T11:47:16;0.30;;;0.20;;
67514;SDS011;60646;55.802;37.032;2022-10-30T11:49:48;0.50;;;0.30;;
67514;SDS011;60646;55.802;37.032;2022-10-30T11:52:19;0.77;;;0.40;;
67514;SDS011;60646;55.802;37.032;2022-10-30T11:55:32;0.32;;;0.30;;
67514;SDS011;60646;55.802;37.032;2022-10-30T11:57:42;1.33;;;0.70;;
67514;SDS011;60646;55.802;37.032;2022-10-30T12:03:48;0.85;;;0.57;;
67514;SDS011;60646;55.802;37.032;2022-10-30T12:06:17;0.50;;;0.38;;
67514;SDS011;60646;55.802;37.032;2022-10-30T12:11:34;0.40;;;0.40;;
67514;SDS011;60646;55.802;37.032;2022-10-30T12:14:01;1.85;;;0.40;;
67514;SDS011;60646;55.802;37.032;2022-10-30T12:16:28;0.47;;;0.47;;
67514;SDS011;60646;55.802;37.032;2022-10-30T12:18:59;0.47;;;0.40;;
67514;SDS011;60646;55.802;37.032;2022-10-30T12:21:34;1.13;;;0.60;;
67514;SDS011;60646;55.802;37.032;2022-10-30T12:24:03;0.85;;;0.40;;
67514;SDS011;60646;55.802;37.032;2022-10-30T12:26:35;0.70;;;0.50;;
67514;SDS011;60646;55.802;37.032;2022-10-30T12:29:03;0.65;;;0.40;;
67514;SDS011;60646;55.802;37.032;2022-10-30T12:31:44;0.75;;;0.50;;
67514;SDS011;60646;55.802;37.032;2022-10-30T12:34:21;0.95;;;0.47;;
67514;SDS011;60646;55.802;37.032;2022-10-30T12:37:17;0.98;;;0.30;;
67514;SDS011;60646;55.802;37.032;2022-10-30T12:40:02;1.08;;;0.38;;
67514;SDS011;60646;55.802;37.032;2022-10-30T12:42:29;2.33;;;0.68;;
67514;SDS011;60646;55.802;37.032;2022-10-30T12:56:18;2.65;;;0.60;;
67514;SDS011;60646;55.802;37.032;2022-10-30T12:58:30;1.00;;;0.57;;
67514;SDS011;60646;55.802;37.032;2022-10-30T13:06:48;1.85;;;0.40;;
67514;SDS011;60646;55.802;37.032;2022-10-30T13:09:38;0.35;;;0.30;;
67514;SDS011;60646;55.802;37.032;2022-10-30T13:12:17;0.35;;;0.30;;
67514;SDS011;60646;55.802;37.032;2022-10-30T13:17:54;0.20;;;0.20;;
67514;SDS011;60646;55.802;37.032;2022-10-30T13:20:22;0.28;;;0.28;;
67514;SDS011;60646;55.802;37.032;2022-10-30T13:22:59;0.25;;;0.25;;
67514;SDS011;60646;55.802;37.032;2022-10-30T13:25:41;0.22;;;0.22;;
67514;SDS011;60646;55.802;37.032;2022-10-30T13:28:50;0.38;;;0.20;;
67514;SDS011;60646;55.802;37.032;2022-10-30T13:56:43;0.55;;;0.30;;
67514;SDS011;60646;55.802;37.032;2022-10-30T14:02:01;1.60;;;0.40;;
67514;SDS011;60646;55.802;37.032;2022-10-30T14:04:55;0.28;;;0.28;;
67514;SDS011;60646;55.802;37.032;2022-10-30T14:07:35;1.40;;;0.40;;
67514;SDS011;60646;55.802;37.032;2022-10-30T14:10:06;0.25;;;0.25;;
67514;SDS011;60646;55.802;37.032;2022-10-30T14:15:25;0.30;;;0.30;;
67514;SDS011;60646;55.802;37.032;2022-10-30T14:20:45;1.00;;;0.38;;
67514;SDS011;60646;55.802;37.032;2022-10-30T14:28:26;1.45;;;0.50;;
67514;SDS011;60646;55.802;37.032;2022-10-30T14:31:02;1.75;;;0.60;;
67514;SDS011;60646;55.802;37.032;2022-10-30T14:36:14;1.25;;;0.75;;
67514;SDS011;60646;55.802;37.032;2022-10-30T14:39:00;1.02;;;0.40;;
67514;SDS011;60646;55.802;37.032;2022-10-30T14:42:04;0.43;;;0.30;;
67514;SDS011;60646;55.802;37.032;2022-10-30T14:45:05;0.47;;;0.40;;
67514;SDS011;60646;55.802;37.032;2022-10-30T14:47:45;0.30;;;0.30;;
67514;SDS011;60646;55.802;37.032;2022-10-30T14:58:28;0.65;;;0.43;;
67514;SDS011;60646;55.802;37.032;2022-10-30T15:03:48;0.85;;;0.68;;
67514;SDS011;60646;55.802;37.032;2022-10-30T15:14:14;0.30;;;0.30;;
67514;SDS011;60646;55.802;37.032;2022-10-30T15:16:42;0.30;;;0.30;;
67514;SDS011;60646;55.802;37.032;2022-10-30T15:19:08;0.95;;;0.47;;
67514;SDS011;60646;55.802;37.032;2022-10-30T15:21:42;5.60;;;0.90;;
67514;SDS011;60646;55.802;37.032;2022-10-30T15:24:11;0.93;;;0.40;;
67514;SDS011;60646;55.802;37.032;2022-10-30T15:26:49;1.40;;;0.43;;
67514;SDS011;60646;55.802;37.032;2022-10-30T15:29:17;0.70;;;0.52;;
67514;SDS011;60646;55.802;37.032;2022-10-30T15:31:55;0.90;;;0.60;;
67514;SDS011;60646;55.802;37.032;2022-10-30T15:34:26;0.57;;;0.30;;
67514;SDS011;60646;55.802;37.032;2022-10-30T15:36:54;0.50;;;0.40;;
67514;SDS011;60646;55.802;37.032;2022-10-30T15:39:21;0.60;;;0.50;;
67514;SDS011;60646;55.802;37.032;2022-10-30T15:41:48;0.52;;;0.30;;
67514;SDS011;60646;55.802;37.032;2022-10-30T15:44:19;1.23;;;0.40;;
67514;SDS011;60646;55.802;37.032;2022-10-30T15:46:47;0.60;;;0.40;;
67514;SDS011;60646;55.802;37.032;2022-10-30T15:49:15;0.40;;;0.35;;
67514;SDS011;60646;55.802;37.032;2022-10-30T15:52:10;0.50;;;0.40;;
67514;SDS011;60646;55.802;37.032;2022-10-30T15:54:43;0.68;;;0.30;;
67514;SDS011;60646;55.802;37.032;2022-10-30T15:57:15;0.40;;;0.40;;
67514;SDS011;60646;55.802;37.032;2022-10-30T15:59:52;0.98;;;0.50;;
67514;SDS011;60646;55.802;37.032;2022-10-30T16:02:21;0.95;;;0.47;;
67514;SDS011;60646;55.802;37.032;2022-10-30T16:04:51;0.93;;;0.50;;
67514;SDS011;60646;55.802;37.032;2022-10-30T16:07:19;0.95;;;0.55;;
67514;SDS011;60646;55.802;37.032;2022-10-30T16:09:59;4.65;;;0.60;;
67514;SDS011;60646;55.802;37.032;2022-10-30T16:12:29;0.73;;;0.40;;
67514;SDS011;60646;55.802;37.032;2022-10-30T16:14:59;0.50;;;0.40;;
67514;SDS011;60646;55.802;37.032;2022-10-30T16:17:31;0.30;;;0.30;;
67514;SDS011;60646;55.802;37.032;2022-10-30T16:20:02;0.55;;;0.32;;
67514;SDS011;60646;55.802;37.032;2022-10-30T16:22:38;0.45;;;0.40;;
67514;SDS011;60646;55.802;37.032;2022-10-30T16:25:05;0.98;;;0.50;;
67514;SDS011;60646;55.802;37.032;2022-10-30T16:27:32;0.32;;;0.32;;
67514;SDS011;60646;55.802;37.032;2022-10-30T16:29:58;0.45;;;0.40;;
67514;SDS011;60646;55.802;37.032;2022-10-30T16:32:26;0.30;;;0.30;;
67514;SDS011;60646;55.802;37.032;2022-10-30T16:34:58;0.30;;;0.30;;
67514;SDS011;60646;55.802;37.032;2022-10-30T16:37:27;0.55;;;0.40;;
67514;SDS011;60646;55.802;37.032;2022-10-30T16:39:59;0.40;;;0.40;;
67514;SDS011;60646;55.802;37.032;2022-10-30T16:42:29;1.27;;;0.30;;
67514;SDS011;60646;55.802;37.032;2022-10-30T16:47:36;0.43;;;0.20;;
67514;SDS011;60646;55.802;37.032;2022-10-30T16:50:04;0.43;;;0.30;;
67514;SDS011;60646;55.802;37.032;2022-10-30T16:52:32;0.30;;;0.30;;
67514;SDS011;60646;55.802;37.032;2022-10-30T16:55:18;3.17;;;0.47;;
67514;SDS011;60646;55.802;37.032;2022-10-30T16:57:59;5.68;;;1.30;;
67514;SDS011;60646;55.802;37.032;2022-10-30T17:00:26;4.20;;;0.90;;
67514;SDS011;60646;55.802;37.032;2022-10-30T17:02:56;2.17;;;0.80;;
67514;SDS011;60646;55.802;37.032;2022-10-30T17:05:25;1.40;;;0.63;;
67514;SDS011;60646;55.802;37.032;2022-10-30T17:07:59;1.80;;;0.57;;
67514;SDS011;60646;55.802;37.032;2022-10-30T17:10:34;0.90;;;0.50;;
67514;SDS011;60646;55.802;37.032;2022-10-30T17:16:10;0.45;;;0.40;;
67514;SDS011;60646;55.802;37.032;2022-10-30T17:18:42;0.35;;;0.30;;
67514;SDS011;60646;55.802;37.032;2022-10-30T17:21:09;0.20;;;0.20;;
67514;SDS011;60646;55.802;37.032;2022-10-30T17:23:43;0.47;;;0.47;;
67514;SDS011;60646;55.802;37.032;2022-10-30T17:26:11;0.57;;;0.40;;
67514;SDS011;60646;55.802;37.032;2022-10-30T17:28:37;3.17;;;0.35;;
67514;SDS011;60646;55.802;37.032;2022-10-30T17:31:20;2.45;;;0.60;;
67514;SDS011;60646;55.802;37.032;2022-10-30T17:36:12;2.42;;;0.40;;
67514;SDS011;60646;55.802;37.032;2022-10-30T17:38:39;0.95;;;0.32;;
67514;SDS011;60646;55.802;37.032;2022-10-30T17:41:08;0.20;;;0.20;;
67514;SDS011;60646;55.802;37.032;2022-10-30T17:43:47;0.75;;;0.38;;
67514;SDS011;60646;55.802;37.032;2022-10-30T17:46:20;2.38;;;1.58;;
67514;SDS011;60646;55.802;37.032;2022-10-30T17:48:46;1.75;;;0.40;;
67514;SDS011;60646;55.802;37.032;2022-10-30T17:51:12;0.30;;;0.30;;
67514;SDS011;60646;55.802;37.032;2022-10-30T17:53:43;0.20;;;0.20;;
67514;SDS011;60646;55.802;37.032;2022-10-30T17:58:39;0.55;;;0.32;;
67514;SDS011;60646;55.802;37.032;2022-10-30T18:01:15;1.08;;;0.43;;